sensor_id;sensor_type;location;lat;lon;timestamp;P1;durP1;ratioP1;P2;durP2;ratioP2
79706;SDS011;69200;53.612;-2.416;2024-02-23T00:00:00;5.10;;;1.63;;
79706;SDS011;69200;53.612;-2.416;2024-02-23T00:02:25;3.38;;;1.27;;
79706;SDS011;69200;53.612;-2.416;2024-02-23T00:04:50;5.93;;;1.80;;
79706;SDS011;69200;53.612;-2.416;2024-02-23T00:07:16;3.53;;;1.30;;
79706;SDS011;69200;53.612;-2.416;2024-02-23T00:09:41;4.57;;;1.57;;
79706;SDS011;69200;53.612;-2.416;2024-02-23T00:12:06;9.07;;;1.63;;
79706;SDS011;69200;53.612;-2.416;2024-02-23T00:14:33;3.90;;;1.40;;
79706;SDS011;69200;53.612;-2.416;2024-02-23T00:17:01;5.10;;;1.67;;
79706;SDS011;69200;53.612;-2.416;2024-02-23T00:19:26;7.95;;;1.70;;
79706;SDS011;69200;53.612;-2.416;2024-02-23T00:21:51;3.93;;;1.50;;
79706;SDS011;69200;53.612;-2.416;2024-02-23T00:24:18;10.25;;;2.42;;
79706;SDS011;69200;53.612;-2.416;2024-02-23T00:26:45;4.60;;;1.63;;
79706;SDS011;69200;53.612;-2.416;2024-02-23T00:29:11;6.75;;;1.83;;
79706;SDS011;69200;53.612;-2.416;2024-02-23T00:31:40;7.28;;;1.80;;
79706;SDS011;69200;53.612;-2.416;2024-02-23T00:34:10;5.15;;;1.38;;
79706;SDS011;69200;53.612;-2.416;2024-02-23T00:36:39;8.20;;;1.75;;
79706;SDS011;69200;53.612;-2.416;2024-02-23T00:39:04;4.50;;;1.45;;
79706;SDS011;69200;53.612;-2.416;2024-02-23T00:41:29;5.27;;;1.60;;
79706;SDS011;69200;53.612;-2.416;2024-02-23T00:43:54;5.27;;;1.30;;
79706;SDS011;69200;53.612;-2.416;2024-02-23T00:46:20;5.78;;;1.27;;
79706;SDS011;69200;53.612;-2.416;2024-02-23T00:48:45;3.70;;;1.30;;
79706;SDS011;69200;53.612;-2.416;2024-02-23T00:51:11;9.35;;;1.40;;
79706;SDS011;69200;53.612;-2.416;2024-02-23T00:53:36;7.80;;;1.30;;
79706;SDS011;69200;53.612;-2.416;2024-02-23T00:56:02;4.47;;;1.17;;
79706;SDS011;69200;53.612;-2.416;2024-02-23T00:58:27;2.25;;;0.82;;
79706;SDS011;69200;53.612;-2.416;2024-02-23T01:00:52;6.40;;;0.97;;
79706;SDS011;69200;53.612;-2.416;2024-02-23T01:03:18;2.57;;;0.83;;
79706;SDS011;69200;53.612;-2.416;2024-02-23T01:05:43;2.15;;;0.70;;
79706;SDS011;69200;53.612;-2.416;2024-02-23T01:08:08;3.87;;;1.30;;
79706;SDS011;69200;53.612;-2.416;2024-02-23T01:10:34;4.38;;;1.05;;
79706;SDS011;69200;53.612;-2.416;2024-02-23T01:12:59;7.30;;;1.90;;
79706;SDS011;69200;53.612;-2.416;2024-02-23T01:15:24;5.13;;;1.73;;
79706;SDS011;69200;53.612;-2.416;2024-02-23T01:17:49;3.57;;;1.30;;
79706;SDS011;69200;53.612;-2.416;2024-02-23T01:20:15;3.80;;;1.37;;
79706;SDS011;69200;53.612;-2.416;2024-02-23T01:22:40;14.47;;;8.80;;
79706;SDS011;69200;53.612;-2.416;2024-02-23T01:25:05;7.27;;;5.60;;
79706;SDS011;69200;53.612;-2.416;2024-02-23T01:27:30;5.47;;;1.35;;
79706;SDS011;69200;53.612;-2.416;2024-02-23T01:29:56;5.53;;;2.37;;
79706;SDS011;69200;53.612;-2.416;2024-02-23T01:32:21;6.63;;;1.43;;
79706;SDS011;69200;53.612;-2.416;2024-02-23T01:34:47;22.25;;;11.80;;
79706;SDS011;69200;53.612;-2.416;2024-02-23T01:37:12;20.33;;;11.90;;
79706;SDS011;69200;53.612;-2.416;2024-02-23T01:39:37;6.73;;;1.50;;
79706;SDS011;69200;53.612;-2.416;2024-02-23T01:42:02;3.13;;;1.00;;
79706;SDS011;69200;53.612;-2.416;2024-02-23T01:44:28;3.95;;;1.15;;
79706;SDS011;69200;53.612;-2.416;2024-02-23T01:46:53;5.40;;;1.47;;
79706;SDS011;69200;53.612;-2.416;2024-02-23T01:49:18;120.20;;;66.38;;
79706;SDS011;69200;53.612;-2.416;2024-02-23T01:51:45;121.80;;;70.72;;
79706;SDS011;69200;53.612;-2.416;2024-02-23T01:54:10;6.18;;;1.90;;
79706;SDS011;69200;53.612;-2.416;2024-02-23T01:56:35;4.03;;;0.93;;
79706;SDS011;69200;53.612;-2.416;2024-02-23T01:59:02;2.63;;;0.80;;
79706;SDS011;69200;53.612;-2.416;2024-02-23T02:01:28;3.70;;;1.27;;
79706;SDS011;69200;53.612;-2.416;2024-02-23T02:03:54;5.90;;;1.10;;
79706;SDS011;69200;53.612;-2.416;2024-02-23T02:06:21;3.47;;;1.10;;
79706;SDS011;69200;53.612;-2.416;2024-02-23T02:08:46;2.33;;;0.90;;
79706;SDS011;69200;53.612;-2.416;2024-02-23T02:11:11;5.10;;;1.70;;
79706;SDS011;69200;53.612;-2.416;2024-02-23T02:13:37;5.73;;;2.83;;
79706;SDS011;69200;53.612;-2.416;2024-02-23T02:16:02;3.53;;;1.27;;
79706;SDS011;69200;53.612;-2.416;2024-02-23T02:18:27;5.32;;;1.60;;
79706;SDS011;69200;53.612;-2.416;2024-02-23T02:20:56;4.07;;;1.13;;
79706;SDS011;69200;53.612;-2.416;2024-02-23T02:23:22;4.85;;;0.90;;
79706;SDS011;69200;53.612;-2.416;2024-02-23T02:25:54;6.43;;;2.10;;
79706;SDS011;69200;53.612;-2.416;2024-02-23T02:28:19;4.22;;;1.00;;
79706;SDS011;69200;53.612;-2.416;2024-02-23T02:30:44;3.13;;;1.17;;
79706;SDS011;69200;53.612;-2.416;2024-02-23T02:33:10;2.28;;;0.50;;
79706;SDS011;69200;53.612;-2.416;2024-02-23T02:35:35;3.97;;;1.03;;
79706;SDS011;69200;53.612;-2.416;2024-02-23T02:38:00;7.00;;;1.00;;
79706;SDS011;69200;53.612;-2.416;2024-02-23T02:40:25;3.97;;;1.50;;
79706;SDS011;69200;53.612;-2.416;2024-02-23T02:42:51;6.22;;;1.50;;
79706;SDS011;69200;53.612;-2.416;2024-02-23T02:45:16;5.47;;;2.13;;
79706;SDS011;69200;53.612;-2.416;2024-02-23T02:47:42;3.80;;;0.95;;
79706;SDS011;69200;53.612;-2.416;2024-02-23T02:50:08;5.97;;;1.52;;
79706;SDS011;69200;53.612;-2.416;2024-02-23T02:52:34;4.97;;;3.30;;
79706;SDS011;69200;53.612;-2.416;2024-02-23T02:54:59;4.43;;;1.03;;
79706;SDS011;69200;53.612;-2.416;2024-02-23T02:57:24;3.77;;;1.13;;
79706;SDS011;69200;53.612;-2.416;2024-02-23T02:59:49;3.73;;;1.40;;
79706;SDS011;69200;53.612;-2.416;2024-02-23T03:02:15;3.10;;;0.90;;
79706;SDS011;69200;53.612;-2.416;2024-02-23T03:04:49;3.77;;;2.53;;
79706;SDS011;69200;53.612;-2.416;2024-02-23T03:07:15;4.38;;;1.20;;
79706;SDS011;69200;53.612;-2.416;2024-02-23T03:09:41;4.05;;;1.27;;
79706;SDS011;69200;53.612;-2.416;2024-02-23T03:12:06;4.90;;;3.90;;
79706;SDS011;69200;53.612;-2.416;2024-02-23T03:14:31;6.35;;;3.70;;
79706;SDS011;69200;53.612;-2.416;2024-02-23T03:16:58;4.00;;;1.40;;
79706;SDS011;69200;53.612;-2.416;2024-02-23T03:19:24;2.47;;;1.20;;
79706;SDS011;69200;53.612;-2.416;2024-02-23T03:21:50;6.53;;;1.38;;
79706;SDS011;69200;53.612;-2.416;2024-02-23T03:24:15;4.07;;;1.23;;
79706;SDS011;69200;53.612;-2.416;2024-02-23T03:26:41;10.43;;;7.33;;
79706;SDS011;69200;53.612;-2.416;2024-02-23T03:29:06;4.57;;;1.00;;
79706;SDS011;69200;53.612;-2.416;2024-02-23T03:31:31;5.10;;;1.27;;
79706;SDS011;69200;53.612;-2.416;2024-02-23T03:33:56;5.70;;;1.47;;
79706;SDS011;69200;53.612;-2.416;2024-02-23T03:36:22;5.47;;;1.20;;
79706;SDS011;69200;53.612;-2.416;2024-02-23T03:38:47;7.57;;;1.83;;
79706;SDS011;69200;53.612;-2.416;2024-02-23T03:41:12;5.67;;;1.93;;
79706;SDS011;69200;53.612;-2.416;2024-02-23T03:43:37;5.90;;;2.00;;
79706;SDS011;69200;53.612;-2.416;2024-02-23T03:46:03;5.50;;;1.98;;
79706;SDS011;69200;53.612;-2.416;2024-02-23T03:48:28;8.13;;;2.10;;
79706;SDS011;69200;53.612;-2.416;2024-02-23T03:50:53;8.20;;;2.10;;
79706;SDS011;69200;53.612;-2.416;2024-02-23T03:53:19;4.82;;;1.70;;
79706;SDS011;69200;53.612;-2.416;2024-02-23T03:55:44;5.18;;;1.83;;
79706;SDS011;69200;53.612;-2.416;2024-02-23T03:58:10;5.70;;;1.90;;
79706;SDS011;69200;53.612;-2.416;2024-02-23T04:00:35;6.30;;;2.37;;
79706;SDS011;69200;53.612;-2.416;2024-02-23T04:03:00;5.40;;;1.77;;
79706;SDS011;69200;53.612;-2.416;2024-02-23T04:05:25;15.63;;;2.37;;
79706;SDS011;69200;53.612;-2.416;2024-02-23T04:07:51;7.33;;;2.17;;
79706;SDS011;69200;53.612;-2.416;2024-02-23T04:10:16;8.53;;;4.00;;
79706;SDS011;69200;53.612;-2.416;2024-02-23T04:12:42;5.73;;;1.90;;
79706;SDS011;69200;53.612;-2.416;2024-02-23T04:15:08;8.20;;;2.25;;
79706;SDS011;69200;53.612;-2.416;2024-02-23T04:17:33;100.43;;;56.83;;
79706;SDS011;69200;53.612;-2.416;2024-02-23T04:19:59;139.80;;;79.00;;
79706;SDS011;69200;53.612;-2.416;2024-02-23T04:22:25;140.00;;;78.97;;
79706;SDS011;69200;53.612;-2.416;2024-02-23T04:24:50;129.50;;;74.23;;
79706;SDS011;69200;53.612;-2.416;2024-02-23T04:27:15;129.77;;;73.17;;
79706;SDS011;69200;53.612;-2.416;2024-02-23T04:29:41;88.43;;;53.00;;
79706;SDS011;69200;53.612;-2.416;2024-02-23T04:32:06;110.97;;;64.05;;
79706;SDS011;69200;53.612;-2.416;2024-02-23T04:34:31;121.50;;;69.07;;
79706;SDS011;69200;53.612;-2.416;2024-02-23T04:36:56;128.23;;;70.97;;
79706;SDS011;69200;53.612;-2.416;2024-02-23T04:39:22;102.67;;;60.43;;
79706;SDS011;69200;53.612;-2.416;2024-02-23T04:41:47;7.35;;;2.78;;
79706;SDS011;69200;53.612;-2.416;2024-02-23T04:44:12;6.47;;;2.50;;
79706;SDS011;69200;53.612;-2.416;2024-02-23T04:46:38;8.63;;;2.10;;
79706;SDS011;69200;53.612;-2.416;2024-02-23T04:49:03;6.37;;;2.40;;
79706;SDS011;69200;53.612;-2.416;2024-02-23T04:51:29;7.80;;;1.85;;
79706;SDS011;69200;53.612;-2.416;2024-02-23T04:53:54;6.10;;;2.17;;
79706;SDS011;69200;53.612;-2.416;2024-02-23T04:56:19;7.93;;;2.47;;
79706;SDS011;69200;53.612;-2.416;2024-02-23T04:58:45;6.07;;;2.33;;
79706;SDS011;69200;53.612;-2.416;2024-02-23T05:01:11;8.90;;;3.38;;
79706;SDS011;69200;53.612;-2.416;2024-02-23T05:03:36;8.68;;;2.85;;
79706;SDS011;69200;53.612;-2.416;2024-02-23T05:06:02;9.10;;;2.70;;
79706;SDS011;69200;53.612;-2.416;2024-02-23T05:08:27;6.15;;;2.13;;
79706;SDS011;69200;53.612;-2.416;2024-02-23T05:10:53;6.22;;;1.67;;
79706;SDS011;69200;53.612;-2.416;2024-02-23T05:13:18;2.97;;;0.95;;
79706;SDS011;69200;53.612;-2.416;2024-02-23T05:15:43;3.05;;;0.98;;
79706;SDS011;69200;53.612;-2.416;2024-02-23T05:18:09;3.63;;;1.30;;
79706;SDS011;69200;53.612;-2.416;2024-02-23T05:20:34;10.00;;;1.50;;
79706;SDS011;69200;53.612;-2.416;2024-02-23T05:22:59;2.60;;;0.83;;
79706;SDS011;69200;53.612;-2.416;2024-02-23T05:25:25;2.78;;;1.00;;
79706;SDS011;69200;53.612;-2.416;2024-02-23T05:27:53;3.28;;;1.00;;
79706;SDS011;69200;53.612;-2.416;2024-02-23T05:30:18;2.35;;;0.80;;
79706;SDS011;69200;53.612;-2.416;2024-02-23T05:32:43;3.05;;;1.20;;
79706;SDS011;69200;53.612;-2.416;2024-02-23T05:35:09;4.07;;;1.30;;
79706;SDS011;69200;53.612;-2.416;2024-02-23T05:37:35;2.97;;;1.10;;
79706;SDS011;69200;53.612;-2.416;2024-02-23T05:40:00;3.88;;;1.10;;
79706;SDS011;69200;53.612;-2.416;2024-02-23T05:42:28;3.63;;;1.23;;
79706;SDS011;69200;53.612;-2.416;2024-02-23T05:44:53;6.63;;;1.80;;
79706;SDS011;69200;53.612;-2.416;2024-02-23T05:47:19;4.57;;;1.23;;
79706;SDS011;69200;53.612;-2.416;2024-02-23T05:49:46;9.00;;;1.90;;
79706;SDS011;69200;53.612;-2.416;2024-02-23T05:52:11;3.30;;;1.27;;
79706;SDS011;69200;53.612;-2.416;2024-02-23T05:54:36;4.07;;;1.20;;
79706;SDS011;69200;53.612;-2.416;2024-02-23T05:57:01;4.83;;;1.33;;
79706;SDS011;69200;53.612;-2.416;2024-02-23T05:59:28;3.75;;;1.42;;
79706;SDS011;69200;53.612;-2.416;2024-02-23T06:01:54;4.20;;;1.50;;
79706;SDS011;69200;53.612;-2.416;2024-02-23T06:04:22;5.18;;;1.23;;
79706;SDS011;69200;53.612;-2.416;2024-02-23T06:06:47;4.72;;;1.75;;
79706;SDS011;69200;53.612;-2.416;2024-02-23T06:09:12;5.60;;;1.77;;
79706;SDS011;69200;53.612;-2.416;2024-02-23T06:11:38;4.60;;;1.33;;
79706;SDS011;69200;53.612;-2.416;2024-02-23T06:14:03;2.97;;;1.10;;
79706;SDS011;69200;53.612;-2.416;2024-02-23T06:16:28;3.03;;;1.10;;
79706;SDS011;69200;53.612;-2.416;2024-02-23T06:18:53;4.00;;;1.43;;
79706;SDS011;69200;53.612;-2.416;2024-02-23T06:21:19;3.67;;;1.27;;
79706;SDS011;69200;53.612;-2.416;2024-02-23T06:23:44;4.40;;;1.45;;
79706;SDS011;69200;53.612;-2.416;2024-02-23T06:26:10;4.10;;;1.40;;
79706;SDS011;69200;53.612;-2.416;2024-02-23T06:28:35;5.35;;;1.23;;
79706;SDS011;69200;53.612;-2.416;2024-02-23T06:31:02;3.40;;;1.10;;
79706;SDS011;69200;53.612;-2.416;2024-02-23T06:33:28;7.05;;;1.50;;
79706;SDS011;69200;53.612;-2.416;2024-02-23T06:35:54;4.53;;;1.55;;
79706;SDS011;69200;53.612;-2.416;2024-02-23T06:38:19;4.40;;;1.17;;
79706;SDS011;69200;53.612;-2.416;2024-02-23T06:40:45;5.13;;;1.17;;
79706;SDS011;69200;53.612;-2.416;2024-02-23T06:43:10;5.07;;;1.50;;
79706;SDS011;69200;53.612;-2.416;2024-02-23T06:45:35;4.00;;;1.57;;
79706;SDS011;69200;53.612;-2.416;2024-02-23T06:48:00;3.80;;;1.40;;
79706;SDS011;69200;53.612;-2.416;2024-02-23T06:50:25;4.30;;;1.20;;
79706;SDS011;69200;53.612;-2.416;2024-02-23T06:52:51;4.27;;;1.60;;
79706;SDS011;69200;53.612;-2.416;2024-02-23T06:55:16;4.83;;;1.27;;
79706;SDS011;69200;53.612;-2.416;2024-02-23T06:57:42;5.30;;;1.55;;
79706;SDS011;69200;53.612;-2.416;2024-02-23T07:00:07;3.30;;;1.15;;
79706;SDS011;69200;53.612;-2.416;2024-02-23T07:02:34;2.95;;;0.93;;
79706;SDS011;69200;53.612;-2.416;2024-02-23T07:05:01;4.35;;;1.30;;
79706;SDS011;69200;53.612;-2.416;2024-02-23T07:07:29;4.07;;;1.20;;
79706;SDS011;69200;53.612;-2.416;2024-02-23T07:09:55;6.43;;;1.48;;
79706;SDS011;69200;53.612;-2.416;2024-02-23T07:12:20;4.82;;;1.20;;
79706;SDS011;69200;53.612;-2.416;2024-02-23T07:14:46;4.97;;;1.30;;
79706;SDS011;69200;53.612;-2.416;2024-02-23T07:17:11;5.93;;;1.67;;
79706;SDS011;69200;53.612;-2.416;2024-02-23T07:19:36;5.50;;;1.30;;
79706;SDS011;69200;53.612;-2.416;2024-02-23T07:22:01;3.97;;;1.27;;
79706;SDS011;69200;53.612;-2.416;2024-02-23T07:24:27;6.13;;;1.50;;
79706;SDS011;69200;53.612;-2.416;2024-02-23T07:26:52;4.60;;;1.40;;
79706;SDS011;69200;53.612;-2.416;2024-02-23T07:29:17;4.10;;;1.40;;
79706;SDS011;69200;53.612;-2.416;2024-02-23T07:31:43;4.43;;;1.30;;
79706;SDS011;69200;53.612;-2.416;2024-02-23T07:34:08;5.37;;;1.33;;
79706;SDS011;69200;53.612;-2.416;2024-02-23T07:36:33;3.63;;;1.33;;
79706;SDS011;69200;53.612;-2.416;2024-02-23T07:38:59;4.32;;;1.60;;
79706;SDS011;69200;53.612;-2.416;2024-02-23T07:41:24;5.53;;;1.73;;
79706;SDS011;69200;53.612;-2.416;2024-02-23T07:43:50;6.68;;;1.80;;
79706;SDS011;69200;53.612;-2.416;2024-02-23T07:46:15;4.13;;;1.50;;
79706;SDS011;69200;53.612;-2.416;2024-02-23T07:48:41;8.73;;;1.98;;
79706;SDS011;69200;53.612;-2.416;2024-02-23T07:51:06;6.50;;;1.67;;
79706;SDS011;69200;53.612;-2.416;2024-02-23T07:53:32;4.10;;;1.40;;
79706;SDS011;69200;53.612;-2.416;2024-02-23T07:55:58;3.73;;;1.40;;
79706;SDS011;69200;53.612;-2.416;2024-02-23T07:58:25;6.45;;;1.73;;
79706;SDS011;69200;53.612;-2.416;2024-02-23T08:00:53;5.93;;;1.45;;
79706;SDS011;69200;53.612;-2.416;2024-02-23T08:03:19;4.50;;;1.40;;
79706;SDS011;69200;53.612;-2.416;2024-02-23T08:05:44;5.38;;;1.55;;
79706;SDS011;69200;53.612;-2.416;2024-02-23T08:08:10;5.33;;;1.87;;
79706;SDS011;69200;53.612;-2.416;2024-02-23T08:10:35;6.13;;;1.27;;
79706;SDS011;69200;53.612;-2.416;2024-02-23T08:13:00;17.37;;;2.07;;
79706;SDS011;69200;53.612;-2.416;2024-02-23T08:15:25;6.37;;;1.77;;
79706;SDS011;69200;53.612;-2.416;2024-02-23T08:17:51;4.67;;;1.53;;
79706;SDS011;69200;53.612;-2.416;2024-02-23T08:20:16;4.23;;;1.60;;
79706;SDS011;69200;53.612;-2.416;2024-02-23T08:22:41;5.72;;;1.70;;
79706;SDS011;69200;53.612;-2.416;2024-02-23T08:25:07;6.75;;;1.95;;
79706;SDS011;69200;53.612;-2.416;2024-02-23T08:27:33;4.63;;;1.70;;
79706;SDS011;69200;53.612;-2.416;2024-02-23T08:29:58;3.78;;;1.15;;
79706;SDS011;69200;53.612;-2.416;2024-02-23T08:32:24;5.90;;;2.28;;
79706;SDS011;69200;53.612;-2.416;2024-02-23T08:34:49;5.67;;;1.70;;
79706;SDS011;69200;53.612;-2.416;2024-02-23T08:37:15;5.90;;;1.85;;
79706;SDS011;69200;53.612;-2.416;2024-02-23T08:39:40;7.93;;;1.87;;
79706;SDS011;69200;53.612;-2.416;2024-02-23T08:42:05;4.30;;;1.37;;
79706;SDS011;69200;53.612;-2.416;2024-02-23T08:44:30;5.37;;;1.63;;
79706;SDS011;69200;53.612;-2.416;2024-02-23T08:46:56;8.70;;;2.45;;
79706;SDS011;69200;53.612;-2.416;2024-02-23T08:49:21;4.97;;;1.20;;
79706;SDS011;69200;53.612;-2.416;2024-02-23T08:51:46;10.10;;;1.73;;
79706;SDS011;69200;53.612;-2.416;2024-02-23T08:54:11;8.17;;;1.13;;
79706;SDS011;69200;53.612;-2.416;2024-02-23T08:56:37;2.97;;;1.02;;
79706;SDS011;69200;53.612;-2.416;2024-02-23T08:59:04;2.13;;;0.90;;
79706;SDS011;69200;53.612;-2.416;2024-02-23T09:01:29;9.00;;;1.90;;
79706;SDS011;69200;53.612;-2.416;2024-02-23T09:03:54;6.05;;;1.42;;
79706;SDS011;69200;53.612;-2.416;2024-02-23T09:06:20;4.97;;;1.57;;
79706;SDS011;69200;53.612;-2.416;2024-02-23T09:08:45;3.53;;;1.00;;
79706;SDS011;69200;53.612;-2.416;2024-02-23T09:11:10;3.43;;;1.00;;
79706;SDS011;69200;53.612;-2.416;2024-02-23T09:13:38;4.05;;;1.20;;
79706;SDS011;69200;53.612;-2.416;2024-02-23T09:16:03;6.43;;;1.87;;
79706;SDS011;69200;53.612;-2.416;2024-02-23T09:18:29;2.80;;;0.90;;
79706;SDS011;69200;53.612;-2.416;2024-02-23T09:20:54;8.53;;;1.33;;
79706;SDS011;69200;53.612;-2.416;2024-02-23T09:23:19;5.40;;;1.00;;
79706;SDS011;69200;53.612;-2.416;2024-02-23T09:25:44;3.90;;;1.20;;
79706;SDS011;69200;53.612;-2.416;2024-02-23T09:28:10;7.82;;;1.10;;
79706;SDS011;69200;53.612;-2.416;2024-02-23T09:30:36;4.40;;;1.25;;
79706;SDS011;69200;53.612;-2.416;2024-02-23T09:33:01;6.72;;;1.20;;
79706;SDS011;69200;53.612;-2.416;2024-02-23T09:35:26;5.23;;;1.00;;
79706;SDS011;69200;53.612;-2.416;2024-02-23T09:37:52;7.13;;;1.30;;
79706;SDS011;69200;53.612;-2.416;2024-02-23T09:40:17;5.40;;;0.80;;
79706;SDS011;69200;53.612;-2.416;2024-02-23T09:42:42;7.40;;;1.17;;
79706;SDS011;69200;53.612;-2.416;2024-02-23T09:45:08;6.30;;;0.85;;
79706;SDS011;69200;53.612;-2.416;2024-02-23T09:47:36;6.75;;;1.33;;
79706;SDS011;69200;53.612;-2.416;2024-02-23T09:50:03;3.85;;;1.20;;
79706;SDS011;69200;53.612;-2.416;2024-02-23T09:52:29;6.15;;;1.38;;
79706;SDS011;69200;53.612;-2.416;2024-02-23T09:54:54;11.13;;;1.27;;
79706;SDS011;69200;53.612;-2.416;2024-02-23T09:57:20;6.97;;;1.33;;
79706;SDS011;69200;53.612;-2.416;2024-02-23T09:59:46;4.82;;;0.50;;
79706;SDS011;69200;53.612;-2.416;2024-02-23T10:02:15;6.82;;;1.08;;
79706;SDS011;69200;53.612;-2.416;2024-02-23T10:04:42;3.30;;;1.10;;
79706;SDS011;69200;53.612;-2.416;2024-02-23T10:07:08;4.80;;;0.90;;
79706;SDS011;69200;53.612;-2.416;2024-02-23T10:09:33;2.70;;;0.85;;
79706;SDS011;69200;53.612;-2.416;2024-02-23T10:11:59;5.40;;;1.20;;
79706;SDS011;69200;53.612;-2.416;2024-02-23T10:14:24;2.23;;;0.80;;
79706;SDS011;69200;53.612;-2.416;2024-02-23T10:16:50;5.43;;;0.77;;
79706;SDS011;69200;53.612;-2.416;2024-02-23T10:19:18;3.17;;;0.60;;
79706;SDS011;69200;53.612;-2.416;2024-02-23T10:21:44;8.32;;;0.95;;
79706;SDS011;69200;53.612;-2.416;2024-02-23T10:24:10;3.78;;;0.80;;
79706;SDS011;69200;53.612;-2.416;2024-02-23T10:26:35;1.77;;;0.43;;
79706;SDS011;69200;53.612;-2.416;2024-02-23T10:29:00;2.97;;;0.40;;
79706;SDS011;69200;53.612;-2.416;2024-02-23T10:31:25;5.57;;;0.80;;
79706;SDS011;69200;53.612;-2.416;2024-02-23T10:33:52;2.83;;;0.50;;
79706;SDS011;69200;53.612;-2.416;2024-02-23T10:36:17;4.55;;;0.80;;
79706;SDS011;69200;53.612;-2.416;2024-02-23T10:38:43;3.15;;;0.60;;
79706;SDS011;69200;53.612;-2.416;2024-02-23T10:41:10;4.95;;;0.43;;
79706;SDS011;69200;53.612;-2.416;2024-02-23T10:43:41;1.40;;;0.43;;
79706;SDS011;69200;53.612;-2.416;2024-02-23T10:48:37;1.38;;;0.40;;
79706;SDS011;69200;53.612;-2.416;2024-02-23T10:51:03;5.47;;;0.77;;
79706;SDS011;69200;53.612;-2.416;2024-02-23T10:53:30;5.22;;;0.70;;
79706;SDS011;69200;53.612;-2.416;2024-02-23T10:55:56;5.45;;;0.77;;
79706;SDS011;69200;53.612;-2.416;2024-02-23T10:58:23;1.98;;;0.55;;
79706;SDS011;69200;53.612;-2.416;2024-02-23T11:00:48;5.68;;;1.05;;
79706;SDS011;69200;53.612;-2.416;2024-02-23T11:03:14;5.55;;;0.63;;
79706;SDS011;69200;53.612;-2.416;2024-02-23T11:05:39;10.30;;;0.90;;
79706;SDS011;69200;53.612;-2.416;2024-02-23T11:08:05;6.00;;;1.08;;
79706;SDS011;69200;53.612;-2.416;2024-02-23T11:10:31;2.60;;;0.70;;
79706;SDS011;69200;53.612;-2.416;2024-02-23T11:13:07;2.70;;;1.00;;
79706;SDS011;69200;53.612;-2.416;2024-02-23T11:15:32;5.45;;;0.77;;
79706;SDS011;69200;53.612;-2.416;2024-02-23T11:18:04;2.92;;;0.75;;
79706;SDS011;69200;53.612;-2.416;2024-02-23T11:20:52;4.65;;;0.80;;
79706;SDS011;69200;53.612;-2.416;2024-02-23T11:23:18;2.40;;;0.38;;
79706;SDS011;69200;53.612;-2.416;2024-02-23T11:25:57;7.25;;;0.75;;
79706;SDS011;69200;53.612;-2.416;2024-02-23T11:28:26;2.30;;;0.82;;
79706;SDS011;69200;53.612;-2.416;2024-02-23T11:30:51;7.95;;;1.27;;
79706;SDS011;69200;53.612;-2.416;2024-02-23T11:33:25;7.88;;;1.15;;
79706;SDS011;69200;53.612;-2.416;2024-02-23T11:35:51;6.00;;;0.70;;
79706;SDS011;69200;53.612;-2.416;2024-02-23T11:38:17;0.75;;;0.40;;
79706;SDS011;69200;53.612;-2.416;2024-02-23T11:40:43;5.35;;;0.75;;
79706;SDS011;69200;53.612;-2.416;2024-02-23T11:43:08;5.50;;;0.65;;
79706;SDS011;69200;53.612;-2.416;2024-02-23T11:45:35;4.53;;;0.47;;
79706;SDS011;69200;53.612;-2.416;2024-02-23T11:48:00;2.07;;;0.30;;
79706;SDS011;69200;53.612;-2.416;2024-02-23T11:50:25;3.50;;;0.53;;
79706;SDS011;69200;53.612;-2.416;2024-02-23T11:52:50;5.80;;;0.83;;
79706;SDS011;69200;53.612;-2.416;2024-02-23T11:55:19;1.60;;;0.40;;
79706;SDS011;69200;53.612;-2.416;2024-02-23T11:57:47;0.55;;;0.20;;
79706;SDS011;69200;53.612;-2.416;2024-02-23T12:00:13;2.50;;;0.60;;
79706;SDS011;69200;53.612;-2.416;2024-02-23T12:02:38;3.58;;;0.52;;
79706;SDS011;69200;53.612;-2.416;2024-02-23T12:05:03;4.13;;;0.90;;
79706;SDS011;69200;53.612;-2.416;2024-02-23T12:07:29;3.17;;;0.88;;
79706;SDS011;69200;53.612;-2.416;2024-02-23T12:09:55;5.00;;;0.68;;
79706;SDS011;69200;53.612;-2.416;2024-02-23T12:12:20;2.83;;;0.70;;
79706;SDS011;69200;53.612;-2.416;2024-02-23T12:14:45;6.00;;;0.67;;
79706;SDS011;69200;53.612;-2.416;2024-02-23T12:17:12;3.42;;;0.63;;
79706;SDS011;69200;53.612;-2.416;2024-02-23T12:19:38;2.30;;;0.50;;
79706;SDS011;69200;53.612;-2.416;2024-02-23T12:22:04;3.72;;;0.90;;
79706;SDS011;69200;53.612;-2.416;2024-02-23T12:24:30;4.83;;;0.77;;
79706;SDS011;69200;53.612;-2.416;2024-02-23T12:26:55;2.70;;;0.70;;
79706;SDS011;69200;53.612;-2.416;2024-02-23T12:29:21;3.15;;;0.60;;
79706;SDS011;69200;53.612;-2.416;2024-02-23T12:31:46;6.93;;;1.13;;
79706;SDS011;69200;53.612;-2.416;2024-02-23T12:34:11;1.80;;;0.53;;
79706;SDS011;69200;53.612;-2.416;2024-02-23T12:36:37;3.70;;;0.95;;
79706;SDS011;69200;53.612;-2.416;2024-02-23T12:39:04;1.85;;;0.60;;
79706;SDS011;69200;53.612;-2.416;2024-02-23T12:41:29;4.07;;;0.93;;
79706;SDS011;69200;53.612;-2.416;2024-02-23T12:43:54;4.60;;;1.17;;
79706;SDS011;69200;53.612;-2.416;2024-02-23T12:46:19;1.87;;;0.60;;
79706;SDS011;69200;53.612;-2.416;2024-02-23T12:48:45;4.30;;;0.80;;
79706;SDS011;69200;53.612;-2.416;2024-02-23T12:51:10;5.30;;;0.90;;
79706;SDS011;69200;53.612;-2.416;2024-02-23T12:53:36;4.47;;;0.67;;
79706;SDS011;69200;53.612;-2.416;2024-02-23T12:56:05;1.95;;;0.50;;
79706;SDS011;69200;53.612;-2.416;2024-02-23T12:58:31;2.22;;;0.63;;
79706;SDS011;69200;53.612;-2.416;2024-02-23T13:00:56;1.73;;;0.43;;
79706;SDS011;69200;53.612;-2.416;2024-02-23T13:03:22;8.02;;;0.75;;
79706;SDS011;69200;53.612;-2.416;2024-02-23T13:05:48;3.92;;;1.05;;
79706;SDS011;69200;53.612;-2.416;2024-02-23T13:08:13;3.13;;;0.70;;
79706;SDS011;69200;53.612;-2.416;2024-02-23T13:10:38;2.00;;;0.70;;
79706;SDS011;69200;53.612;-2.416;2024-02-23T13:13:03;2.37;;;0.67;;
79706;SDS011;69200;53.612;-2.416;2024-02-23T13:15:29;2.47;;;0.73;;
79706;SDS011;69200;53.612;-2.416;2024-02-23T13:17:54;7.57;;;1.13;;
79706;SDS011;69200;53.612;-2.416;2024-02-23T13:20:19;2.00;;;0.50;;
79706;SDS011;69200;53.612;-2.416;2024-02-23T13:22:44;5.13;;;0.90;;
79706;SDS011;69200;53.612;-2.416;2024-02-23T13:25:10;2.63;;;0.70;;
79706;SDS011;69200;53.612;-2.416;2024-02-23T13:27:35;4.47;;;0.67;;
79706;SDS011;69200;53.612;-2.416;2024-02-23T13:30:00;4.13;;;0.70;;
79706;SDS011;69200;53.612;-2.416;2024-02-23T13:32:27;2.70;;;0.45;;
79706;SDS011;69200;53.612;-2.416;2024-02-23T13:34:52;6.75;;;0.88;;
79706;SDS011;69200;53.612;-2.416;2024-02-23T13:37:18;2.90;;;0.50;;
79706;SDS011;69200;53.612;-2.416;2024-02-23T13:39:43;2.30;;;0.17;;
79706;SDS011;69200;53.612;-2.416;2024-02-23T13:42:08;1.63;;;0.40;;
79706;SDS011;69200;53.612;-2.416;2024-02-23T13:44:35;1.52;;;0.40;;
79706;SDS011;69200;53.612;-2.416;2024-02-23T13:47:00;2.10;;;0.80;;
79706;SDS011;69200;53.612;-2.416;2024-02-23T13:49:25;3.23;;;0.60;;
79706;SDS011;69200;53.612;-2.416;2024-02-23T13:51:51;2.00;;;0.80;;
79706;SDS011;69200;53.612;-2.416;2024-02-23T13:54:16;2.93;;;0.60;;
79706;SDS011;69200;53.612;-2.416;2024-02-23T13:56:41;4.50;;;0.60;;
79706;SDS011;69200;53.612;-2.416;2024-02-23T13:59:06;1.23;;;0.37;;
79706;SDS011;69200;53.612;-2.416;2024-02-23T14:01:32;3.00;;;1.00;;
79706;SDS011;69200;53.612;-2.416;2024-02-23T14:03:57;3.50;;;0.47;;
79706;SDS011;69200;53.612;-2.416;2024-02-23T14:06:22;2.23;;;0.60;;
79706;SDS011;69200;53.612;-2.416;2024-02-23T14:08:47;5.20;;;0.43;;
79706;SDS011;69200;53.612;-2.416;2024-02-23T14:11:13;4.23;;;0.90;;
79706;SDS011;69200;53.612;-2.416;2024-02-23T14:13:38;2.83;;;0.82;;
79706;SDS011;69200;53.612;-2.416;2024-02-23T14:16:04;17.03;;;0.63;;
79706;SDS011;69200;53.612;-2.416;2024-02-23T14:18:30;0.82;;;0.30;;
79706;SDS011;69200;53.612;-2.416;2024-02-23T14:20:57;1.77;;;0.20;;
79706;SDS011;69200;53.612;-2.416;2024-02-23T14:23:22;1.57;;;0.50;;
79706;SDS011;69200;53.612;-2.416;2024-02-23T14:25:47;3.80;;;0.57;;